sensor_id;sensor_type;location;lat;lon;timestamp;temperature;humidity
11132;DHT22;5620;53.570;9.718;2023-02-11T00:01:47;7.40;99.90
11132;DHT22;5620;53.570;9.718;2023-02-11T00:04:15;7.40;99.90
11132;DHT22;5620;53.570;9.718;2023-02-11T00:06:43;7.40;99.90
11132;DHT22;5620;53.570;9.718;2023-02-11T00:09:09;7.40;99.90
11132;DHT22;5620;53.570;9.718;2023-02-11T00:11:36;7.40;99.90
11132;DHT22;5620;53.570;9.718;2023-02-11T00:14:06;7.40;99.90
11132;DHT22;5620;53.570;9.718;2023-02-11T00:16:34;7.50;99.90
11132;DHT22;5620;53.570;9.718;2023-02-11T00:19:02;7.50;99.90
11132;DHT22;5620;53.570;9.718;2023-02-11T00:21:30;7.50;99.90
11132;DHT22;5620;53.570;9.718;2023-02-11T00:23:58;7.40;99.90
11132;DHT22;5620;53.570;9.718;2023-02-11T00:26:28;7.40;99.90
11132;DHT22;5620;53.570;9.718;2023-02-11T00:29:02;7.50;99.90
11132;DHT22;5620;53.570;9.718;2023-02-11T00:31:28;7.50;99.90
11132;DHT22;5620;53.570;9.718;2023-02-11T00:33:56;7.50;99.90
11132;DHT22;5620;53.570;9.718;2023-02-11T00:36:24;7.50;99.90
11132;DHT22;5620;53.570;9.718;2023-02-11T00:38:53;7.50;99.90
11132;DHT22;5620;53.570;9.718;2023-02-11T00:41:22;7.50;99.90
11132;DHT22;5620;53.570;9.718;2023-02-11T00:43:49;7.50;99.90
11132;DHT22;5620;53.570;9.718;2023-02-11T00:46:19;7.50;99.90
11132;DHT22;5620;53.570;9.718;2023-02-11T00:48:48;7.50;99.90
11132;DHT22;5620;53.570;9.718;2023-02-11T00:51:14;7.60;99.90
11132;DHT22;5620;53.570;9.718;2023-02-11T00:53:40;7.50;99.90
11132;DHT22;5620;53.570;9.718;2023-02-11T00:56:06;7.50;99.90
11132;DHT22;5620;53.570;9.718;2023-02-11T00:58:33;7.50;99.90
11132;DHT22;5620;53.570;9.718;2023-02-11T01:01:01;7.50;99.90
11132;DHT22;5620;53.570;9.718;2023-02-11T01:03:27;7.50;1.00
11132;DHT22;5620;53.570;9.718;2023-02-11T01:05:54;7.40;1.00
11132;DHT22;5620;53.570;9.718;2023-02-11T01:08:20;7.40;1.00
11132;DHT22;5620;53.570;9.718;2023-02-11T01:13:41;7.50;1.00
11132;DHT22;5620;53.570;9.718;2023-02-11T01:16:11;7.40;1.00
11132;DHT22;5620;53.570;9.718;2023-02-11T01:18:39;7.50;1.00
11132;DHT22;5620;53.570;9.718;2023-02-11T01:21:05;7.50;1.00
11132;DHT22;5620;53.570;9.718;2023-02-11T01:23:32;7.50;1.00
11132;DHT22;5620;53.570;9.718;2023-02-11T01:25:59;7.50;1.00
11132;DHT22;5620;53.570;9.718;2023-02-11T01:28:28;7.50;1.00
11132;DHT22;5620;53.570;9.718;2023-02-11T01:30:54;7.60;1.00
11132;DHT22;5620;53.570;9.718;2023-02-11T01:33:22;7.60;1.00
11132;DHT22;5620;53.570;9.718;2023-02-11T01:35:48;7.50;19.30
11132;DHT22;5620;53.570;9.718;2023-02-11T01:38:21;7.60;21.80
11132;DHT22;5620;53.570;9.718;2023-02-11T01:40:54;7.60;29.10
11132;DHT22;5620;53.570;9.718;2023-02-11T01:43:22;7.60;44.20
11132;DHT22;5620;53.570;9.718;2023-02-11T01:48:35;7.60;60.40
11132;DHT22;5620;53.570;9.718;2023-02-11T01:51:10;7.60;82.60
11132;DHT22;5620;53.570;9.718;2023-02-11T01:54:01;7.50;99.90
11132;DHT22;5620;53.570;9.718;2023-02-11T01:56:32;7.50;99.90
11132;DHT22;5620;53.570;9.718;2023-02-11T01:59:10;7.60;99.90
11132;DHT22;5620;53.570;9.718;2023-02-11T02:01:45;7.60;99.90
11132;DHT22;5620;53.570;9.718;2023-02-11T02:04:15;7.50;99.90
11132;DHT22;5620;53.570;9.718;2023-02-11T02:06:55;7.60;99.90
11132;DHT22;5620;53.570;9.718;2023-02-11T02:09:28;7.60;99.90
11132;DHT22;5620;53.570;9.718;2023-02-11T02:12:04;7.60;99.90
11132;DHT22;5620;53.570;9.718;2023-02-11T02:14:31;7.60;99.90
11132;DHT22;5620;53.570;9.718;2023-02-11T02:17:00;7.60;99.90
11132;DHT22;5620;53.570;9.718;2023-02-11T02:37:14;7.60;1.00
11132;DHT22;5620;53.570;9.718;2023-02-11T02:39:44;7.60;1.00
11132;DHT22;5620;53.570;9.718;2023-02-11T02:42:14;7.60;1.00
11132;DHT22;5620;53.570;9.718;2023-02-11T02:44:48;7.60;1.00
11132;DHT22;5620;53.570;9.718;2023-02-11T02:47:17;7.50;1.00
11132;DHT22;5620;53.570;9.718;2023-02-11T02:49:42;7.50;1.00
11132;DHT22;5620;53.570;9.718;2023-02-11T02:58:40;7.40;99.90
11132;DHT22;5620;53.570;9.718;2023-02-11T03:04:35;7.30;99.90
11132;DHT22;5620;53.570;9.718;2023-02-11T03:07:26;7.30;1.00
11132;DHT22;5620;53.570;9.718;2023-02-11T03:12:44;7.30;1.00
11132;DHT22;5620;53.570;9.718;2023-02-11T03:15:12;7.30;1.00
11132;DHT22;5620;53.570;9.718;2023-02-11T03:17:42;7.30;1.00
11132;DHT22;5620;53.570;9.718;2023-02-11T03:20:13;7.30;1.00
11132;DHT22;5620;53.570;9.718;2023-02-11T03:23:05;7.40;95.50
11132;DHT22;5620;53.570;9.718;2023-02-11T03:25:44;7.40;92.20
11132;DHT22;5620;53.570;9.718;2023-02-11T03:33:51;7.60;99.90
11132;DHT22;5620;53.570;9.718;2023-02-11T03:36:44;7.70;99.90
11132;DHT22;5620;53.570;9.718;2023-02-11T03:39:37;7.70;99.90
11132;DHT22;5620;53.570;9.718;2023-02-11T03:42:06;7.80;99.90
11132;DHT22;5620;53.570;9.718;2023-02-11T03:44:45;7.90;99.90
11132;DHT22;5620;53.570;9.718;2023-02-11T03:47:19;7.90;99.90
11132;DHT22;5620;53.570;9.718;2023-02-11T03:49:50;7.90;67.60
11132;DHT22;5620;53.570;9.718;2023-02-11T03:52:19;8.00;55.90
11132;DHT22;5620;53.570;9.718;2023-02-11T03:54:50;8.00;20.50
11132;DHT22;5620;53.570;9.718;2023-02-11T03:57:18;8.00;1.00
11132;DHT22;5620;53.570;9.718;2023-02-11T04:00:04;8.10;1.00
11132;DHT22;5620;53.570;9.718;2023-02-11T04:02:37;8.10;1.00
11132;DHT22;5620;53.570;9.718;2023-02-11T04:05:06;8.10;1.00
11132;DHT22;5620;53.570;9.718;2023-02-11T04:07:35;8.10;1.00
11132;DHT22;5620;53.570;9.718;2023-02-11T04:10:04;8.20;1.00
11132;DHT22;5620;53.570;9.718;2023-02-11T04:12:32;8.20;1.00
11132;DHT22;5620;53.570;9.718;2023-02-11T04:14:58;8.20;1.00
11132;DHT22;5620;53.570;9.718;2023-02-11T04:17:28;8.30;1.00
11132;DHT22;5620;53.570;9.718;2023-02-11T04:19:54;8.30;99.90
11132;DHT22;5620;53.570;9.718;2023-02-11T04:22:20;8.30;99.90
11132;DHT22;5620;53.570;9.718;2023-02-11T04:24:47;8.30;99.90
11132;DHT22;5620;53.570;9.718;2023-02-11T04:27:14;8.30;99.90
11132;DHT22;5620;53.570;9.718;2023-02-11T04:29:42;8.30;99.90
11132;DHT22;5620;53.570;9.718;2023-02-11T04:32:10;8.30;99.90
11132;DHT22;5620;53.570;9.718;2023-02-11T04:34:37;8.30;99.90
11132;DHT22;5620;53.570;9.718;2023-02-11T04:37:05;8.30;99.90
11132;DHT22;5620;53.570;9.718;2023-02-11T04:39:33;8.30;99.90
11132;DHT22;5620;53.570;9.718;2023-02-11T04:42:00;8.30;99.90
11132;DHT22;5620;53.570;9.718;2023-02-11T04:44:27;8.40;99.90
11132;DHT22;5620;53.570;9.718;2023-02-11T04:46:54;8.40;99.90
11132;DHT22;5620;53.570;9.718;2023-02-11T04:49:21;8.40;99.90
11132;DHT22;5620;53.570;9.718;2023-02-11T04:51:48;8.40;99.90
11132;DHT22;5620;53.570;9.718;2023-02-11T04:54:14;8.40;99.90
11132;DHT22;5620;53.570;9.718;2023-02-11T04:56:41;8.40;99.90
11132;DHT22;5620;53.570;9.718;2023-02-11T04:59:08;8.40;99.90
11132;DHT22;5620;53.570;9.718;2023-02-11T05:01:36;8.40;99.90
11132;DHT22;5620;53.570;9.718;2023-02-11T05:04:03;8.40;99.90
11132;DHT22;5620;53.570;9.718;2023-02-11T05:06:30;8.30;99.90
11132;DHT22;5620;53.570;9.718;2023-02-11T05:08:55;8.30;99.90
11132;DHT22;5620;53.570;9.718;2023-02-11T05:11:23;8.30;99.90
11132;DHT22;5620;53.570;9.718;2023-02-11T05:13:50;8.30;99.90
11132;DHT22;5620;53.570;9.718;2023-02-11T05:16:18;8.30;99.90
11132;DHT22;5620;53.570;9.718;2023-02-11T05:18:45;8.30;99.90
11132;DHT22;5620;53.570;9.718;2023-02-11T05:21:16;8.20;1.00
11132;DHT22;5620;53.570;9.718;2023-02-11T05:23:46;8.20;1.00
11132;DHT22;5620;53.570;9.718;2023-02-11T05:26:12;8.10;1.00
11132;DHT22;5620;53.570;9.718;2023-02-11T05:28:39;8.10;1.00
11132;DHT22;5620;53.570;9.718;2023-02-11T05:31:09;8.10;1.00
11132;DHT22;5620;53.570;9.718;2023-02-11T05:33:35;8.10;1.00
11132;DHT22;5620;53.570;9.718;2023-02-11T05:36:05;8.00;42.30
11132;DHT22;5620;53.570;9.718;2023-02-11T05:38:35;8.00;99.90
11132;DHT22;5620;53.570;9.718;2023-02-11T05:41:03;8.00;99.90
11132;DHT22;5620;53.570;9.718;2023-02-11T05:43:31;8.00;99.90
11132;DHT22;5620;53.570;9.718;2023-02-11T05:45:59;8.10;99.90
11132;DHT22;5620;53.570;9.718;2023-02-11T05:48:27;8.10;1.00
11132;DHT22;5620;53.570;9.718;2023-02-11T05:50:56;8.10;1.00
11132;DHT22;5620;53.570;9.718;2023-02-11T05:53:24;8.20;1.00
11132;DHT22;5620;53.570;9.718;2023-02-11T05:55:52;8.20;1.00
11132;DHT22;5620;53.570;9.718;2023-02-11T05:58:17;8.20;1.00
11132;DHT22;5620;53.570;9.718;2023-02-11T06:00:44;8.20;1.00
11132;DHT22;5620;53.570;9.718;2023-02-11T06:03:11;8.20;1.00
11132;DHT22;5620;53.570;9.718;2023-02-11T06:05:38;8.20;18.80
11132;DHT22;5620;53.570;9.718;2023-02-11T06:08:05;8.20;85.20
11132;DHT22;5620;53.570;9.718;2023-02-11T06:10:33;8.20;99.90
11132;DHT22;5620;53.570;9.718;2023-02-11T06:13:00;8.20;99.90
11132;DHT22;5620;53.570;9.718;2023-02-11T06:15:29;8.20;99.90
11132;DHT22;5620;53.570;9.718;2023-02-11T06:18:00;8.20;99.90
11132;DHT22;5620;53.570;9.718;2023-02-11T06:20:26;8.30;99.90
11132;DHT22;5620;53.570;9.718;2023-02-11T06:22:52;8.30;99.90
11132;DHT22;5620;53.570;9.718;2023-02-11T06:25:20;8.30;99.90
11132;DHT22;5620;53.570;9.718;2023-02-11T06:27:48;8.30;1.00
11132;DHT22;5620;53.570;9.718;2023-02-11T06:30:16;8.30;1.00
11132;DHT22;5620;53.570;9.718;2023-02-11T06:32:43;8.40;1.00
11132;DHT22;5620;53.570;9.718;2023-02-11T06:35:10;8.40;1.00
11132;DHT22;5620;53.570;9.718;2023-02-11T06:37:37;8.40;99.90
11132;DHT22;5620;53.570;9.718;2023-02-11T06:40:05;8.40;99.90
11132;DHT22;5620;53.570;9.718;2023-02-11T06:42:42;8.40;99.90
11132;DHT22;5620;53.570;9.718;2023-02-11T06:45:10;8.30;1.00
11132;DHT22;5620;53.570;9.718;2023-02-11T06:47:38;8.30;1.00
11132;DHT22;5620;53.570;9.718;2023-02-11T06:50:09;8.30;1.00
11132;DHT22;5620;53.570;9.718;2023-02-11T06:52:35;8.30;1.00
11132;DHT22;5620;53.570;9.718;2023-02-11T06:55:02;8.30;1.00
11132;DHT22;5620;53.570;9.718;2023-02-11T06:57:29;8.30;1.00
11132;DHT22;5620;53.570;9.718;2023-02-11T06:59:58;8.30;1.00
11132;DHT22;5620;53.570;9.718;2023-02-11T07:02:24;8.30;1.00
11132;DHT22;5620;53.570;9.718;2023-02-11T07:04:50;8.20;1.00
11132;DHT22;5620;53.570;9.718;2023-02-11T07:07:17;8.20;1.00
11132;DHT22;5620;53.570;9.718;2023-02-11T07:09:44;8.20;78.50
11132;DHT22;5620;53.570;9.718;2023-02-11T07:12:13;8.20;74.80
11132;DHT22;5620;53.570;9.718;2023-02-11T07:14:40;8.10;99.90
11132;DHT22;5620;53.570;9.718;2023-02-11T07:17:07;8.20;99.90
11132;DHT22;5620;53.570;9.718;2023-02-11T07:19:35;8.10;99.90
11132;DHT22;5620;53.570;9.718;2023-02-11T07:22:02;8.20;99.90
11132;DHT22;5620;53.570;9.718;2023-02-11T07:24:29;8.20;1.00
11132;DHT22;5620;53.570;9.718;2023-02-11T07:26:57;8.20;1.00
11132;DHT22;5620;53.570;9.718;2023-02-11T07:29:24;8.20;1.00
11132;DHT22;5620;53.570;9.718;2023-02-11T07:31:51;8.20;1.00
11132;DHT22;5620;53.570;9.718;2023-02-11T07:34:17;8.20;1.00
11132;DHT22;5620;53.570;9.718;2023-02-11T07:36:49;8.20;17.60
11132;DHT22;5620;53.570;9.718;2023-02-11T07:39:16;8.20;39.90
11132;DHT22;5620;53.570;9.718;2023-02-11T07:41:44;8.20;90.80
11132;DHT22;5620;53.570;9.718;2023-02-11T07:44:13;8.20;99.90
11132;DHT22;5620;53.570;9.718;2023-02-11T07:46:39;8.20;99.90
11132;DHT22;5620;53.570;9.718;2023-02-11T07:49:07;8.30;99.90
11132;DHT22;5620;53.570;9.718;2023-02-11T07:51:33;8.30;99.90
11132;DHT22;5620;53.570;9.718;2023-02-11T07:54:00;8.40;99.90
11132;DHT22;5620;53.570;9.718;2023-02-11T07:56:28;8.30;99.90
11132;DHT22;5620;53.570;9.718;2023-02-11T07:58:58;8.40;1.00
11132;DHT22;5620;53.570;9.718;2023-02-11T08:01:25;8.40;99.90
11132;DHT22;5620;53.570;9.718;2023-02-11T08:03:52;8.40;99.90
11132;DHT22;5620;53.570;9.718;2023-02-11T08:06:20;8.40;1.00
11132;DHT22;5620;53.570;9.718;2023-02-11T08:08:49;8.50;1.00
11132;DHT22;5620;53.570;9.718;2023-02-11T08:11:25;8.50;1.00
11132;DHT22;5620;53.570;9.718;2023-02-11T08:13:51;8.50;1.00
11132;DHT22;5620;53.570;9.718;2023-02-11T08:16:38;8.50;1.00
11132;DHT22;5620;53.570;9.718;2023-02-11T08:19:13;8.60;1.00
11132;DHT22;5620;53.570;9.718;2023-02-11T08:21:41;8.50;1.00
11132;DHT22;5620;53.570;9.718;2023-02-11T08:24:09;8.60;3.90
11132;DHT22;5620;53.570;9.718;2023-02-11T08:26:38;8.60;4.40
11132;DHT22;5620;53.570;9.718;2023-02-11T08:29:10;8.60;4.40
11132;DHT22;5620;53.570;9.718;2023-02-11T08:31:40;8.60;37.40
11132;DHT22;5620;53.570;9.718;2023-02-11T08:34:06;8.60;99.90
11132;DHT22;5620;53.570;9.718;2023-02-11T08:36:35;8.70;82.80
11132;DHT22;5620;53.570;9.718;2023-02-11T08:39:12;8.60;4.10
11132;DHT22;5620;53.570;9.718;2023-02-11T08:41:39;8.70;55.00
11132;DHT22;5620;53.570;9.718;2023-02-11T08:44:06;8.70;99.90
11132;DHT22;5620;53.570;9.718;2023-02-11T08:46:33;8.70;3.90
11132;DHT22;5620;53.570;9.718;2023-02-11T08:49:02;8.70;92.40
11132;DHT22;5620;53.570;9.718;2023-02-11T08:51:29;8.80;99.90
11132;DHT22;5620;53.570;9.718;2023-02-11T08:53:56;8.80;80.00
11132;DHT22;5620;53.570;9.718;2023-02-11T08:56:25;8.80;88.90
11132;DHT22;5620;53.570;9.718;2023-02-11T08:58:52;8.80;91.70
11132;DHT22;5620;53.570;9.718;2023-02-11T09:01:28;8.90;96.50
11132;DHT22;5620;53.570;9.718;2023-02-11T09:03:57;8.90;96.60
11132;DHT22;5620;53.570;9.718;2023-02-11T09:06:26;8.90;89.30
11132;DHT22;5620;53.570;9.718;2023-02-11T09:09:23;8.90;99.90
11132;DHT22;5620;53.570;9.718;2023-02-11T09:11:54;8.90;99.90
11132;DHT22;5620;53.570;9.718;2023-02-11T09:14:22;9.00;90.00
11132;DHT22;5620;53.570;9.718;2023-02-11T09:16:51;8.90;99.90
11132;DHT22;5620;53.570;9.718;2023-02-11T09:19:19;9.00;99.90
11132;DHT22;5620;53.570;9.718;2023-02-11T09:21:45;9.00;99.90
11132;DHT22;5620;53.570;9.718;2023-02-11T09:24:14;9.00;99.90
11132;DHT22;5620;53.570;9.718;2023-02-11T09:26:43;9.00;99.90
11132;DHT22;5620;53.570;9.718;2023-02-11T09:29:14;9.10;99.90
11132;DHT22;5620;53.570;9.718;2023-02-11T09:31:42;9.10;99.90
11132;DHT22;5620;53.570;9.718;2023-02-11T09:34:11;9.20;99.90
11132;DHT22;5620;53.570;9.718;2023-02-11T09:36:38;9.30;99.90
11132;DHT22;5620;53.570;9.718;2023-02-11T09:39:12;9.30;99.90
11132;DHT22;5620;53.570;9.718;2023-02-11T09:44:27;9.40;45.00
11132;DHT22;5620;53.570;9.718;2023-02-11T09:49:56;9.50;1.00
11132;DHT22;5620;53.570;9.718;2023-02-11T09:55:38;9.70;1.00
11132;DHT22;5620;53.570;9.718;2023-02-11T10:01:29;9.90;99.90
11132;DHT22;5620;53.570;9.718;2023-02-11T10:10:30;10.10;99.90
11132;DHT22;5620;53.570;9.718;2023-02-11T10:16:29;10.10;1.00
11132;DHT22;5620;53.570;9.718;2023-02-11T10:24:37;10.00;99.90
11132;DHT22;5620;53.570;9.718;2023-02-11T10:27:18;10.00;99.90
11132;DHT22;5620;53.570;9.718;2023-02-11T10:29:52;10.00;99.90
11132;DHT22;5620;53.570;9.718;2023-02-11T10:32:43;10.00;99.90
11132;DHT22;5620;53.570;9.718;2023-02-11T10:35:20;10.00;99.90
11132;DHT22;5620;53.570;9.718;2023-02-11T10:37:48;10.00;82.90
11132;DHT22;5620;53.570;9.718;2023-02-11T10:40:16;9.80;1.00
11132;DHT22;5620;53.570;9.718;2023-02-11T10:42:48;9.70;99.90
11132;DHT22;5620;53.570;9.718;2023-02-11T10:45:26;9.60;99.90
11132;DHT22;5620;53.570;9.718;2023-02-11T10:47:59;9.50;1.00
11132;DHT22;5620;53.570;9.718;2023-02-11T10:50:30;9.50;1.00
11132;DHT22;5620;53.570;9.718;2023-02-11T10:53:20;9.40;99.90
11132;DHT22;5620;53.570;9.718;2023-02-11T10:55:56;9.50;99.90
11132;DHT22;5620;53.570;9.718;2023-02-11T10:58:45;9.50;1.00
11132;DHT22;5620;53.570;9.718;2023-02-11T11:01:50;9.70;1.00
11132;DHT22;5620;53.570;9.718;2023-02-11T11:07:34;9.70;1.00
11132;DHT22;5620;53.570;9.718;2023-02-11T11:10:25;9.50;1.00
11132;DHT22;5620;53.570;9.718;2023-02-11T11:12:52;9.40;1.00
11132;DHT22;5620;53.570;9.718;2023-02-11T11:15:26;9.40;61.20
11132;DHT22;5620;53.570;9.718;2023-02-11T11:18:16;9.30;99.90
11132;DHT22;5620;53.570;9.718;2023-02-11T11:20:58;9.20;99.90
11132;DHT22;5620;53.570;9.718;2023-02-11T11:23:27;9.20;1.00
11132;DHT22;5620;53.570;9.718;2023-02-11T11:32:04;9.30;1.00
11132;DHT22;5620;53.570;9.718;2023-02-11T11:34:36;9.40;1.00
11132;DHT22;5620;53.570;9.718;2023-02-11T11:37:26;9.30;1.00
11132;DHT22;5620;53.570;9.718;2023-02-11T11:42:34;9.30;11.70
11132;DHT22;5620;53.570;9.718;2023-02-11T11:45:23;9.30;99.90
11132;DHT22;5620;53.570;9.718;2023-02-11T11:51:04;9.40;1.00
11132;DHT22;5620;53.570;9.718;2023-02-11T11:53:35;9.40;99.90
11132;DHT22;5620;53.570;9.718;2023-02-11T11:56:31;9.50;99.90
11132;DHT22;5620;53.570;9.718;2023-02-11T11:59:00;9.50;99.90
11132;DHT22;5620;53.570;9.718;2023-02-11T12:01:57;9.50;99.90
11132;DHT22;5620;53.570;9.718;2023-02-11T12:05:02;9.50;99.90
11132;DHT22;5620;53.570;9.718;2023-02-11T12:08:13;9.60;1.00
11132;DHT22;5620;53.570;9.718;2023-02-11T12:10:55;9.60;99.90
11132;DHT22;5620;53.570;9.718;2023-02-11T12:22:10;9.70;1.00
11132;DHT22;5620;53.570;9.718;2023-02-11T12:48:09;10.00;1.00
11132;DHT22;5620;53.570;9.718;2023-02-11T12:59:42;10.00;99.90
11132;DHT22;5620;53.570;9.718;2023-02-11T13:08:40;10.00;99.90
11132;DHT22;5620;53.570;9.718;2023-02-11T13:11:11;10.00;99.90
11132;DHT22;5620;53.570;9.718;2023-02-11T13:16:44;10.00;99.90
11132;DHT22;5620;53.570;9.718;2023-02-11T13:19:37;10.10;99.90
11132;DHT22;5620;53.570;9.718;2023-02-11T13:22:15;10.10;99.90
11132;DHT22;5620;53.570;9.718;2023-02-11T13:28:13;10.10;99.90
11132;DHT22;5620;53.570;9.718;2023-02-11T13:30:45;10.10;99.90
11132;DHT22;5620;53.570;9.718;2023-02-11T13:38:27;10.10;1.00
11132;DHT22;5620;53.570;9.718;2023-02-11T13:41:17;10.20;99.90
11132;DHT22;5620;53.570;9.718;2023-02-11T13:43:55;10.30;14.30
11132;DHT22;5620;53.570;9.718;2023-02-11T13:46:24;10.40;12.00
11132;DHT22;5620;53.570;9.718;2023-02-11T13:48:52;10.40;1.00
11132;DHT22;5620;53.570;9.718;2023-02-11T13:51:38;10.40;99.90
11132;DHT22;5620;53.570;9.718;2023-02-11T13:54:06;10.40;99.90
11132;DHT22;5620;53.570;9.718;2023-02-11T13:56:41;10.40;80.90
11132;DHT22;5620;53.570;9.718;2023-02-11T14:04:26;10.30;99.90
11132;DHT22;5620;53.570;9.718;2023-02-11T14:10:00;10.30;99.90
11132;DHT22;5620;53.570;9.718;2023-02-11T14:12:34;10.30;99.90
11132;DHT22;5620;53.570;9.718;2023-02-11T14:15:24;10.30;99.90
11132;DHT22;5620;53.570;9.718;2023-02-11T14:17:51;10.40;99.90
11132;DHT22;5620;53.570;9.718;2023-02-11T14:20:36;10.40;99.90
11132;DHT22;5620;53.570;9.718;2023-02-11T14:23:17;10.40;91.70
11132;DHT22;5620;53.570;9.718;2023-02-11T14:25:58;10.40;99.90
11132;DHT22;5620;53.570;9.718;2023-02-11T14:28:28;10.40;99.90
11132;DHT22;5620;53.570;9.718;2023-02-11T14:31:11;10.50;99.90
11132;DHT22;5620;53.570;9.718;2023-02-11T14:41:49;10.50;1.00
11132;DHT22;5620;53.570;9.718;2023-02-11T14:44:22;10.40;99.90
11132;DHT22;5620;53.570;9.718;2023-02-11T14:46:51;10.40;99.90
11132;DHT22;5620;53.570;9.718;2023-02-11T14:49:32;10.40;99.90
11132;DHT22;5620;53.570;9.718;2023-02-11T14:54:50;10.30;99.90
11132;DHT22;5620;53.570;9.718;2023-02-11T14:57:22;10.30;99.90
11132;DHT22;5620;53.570;9.718;2023-02-11T15:00:00;10.20;99.90
11132;DHT22;5620;53.570;9.718;2023-02-11T15:02:36;10.20;99.90
11132;DHT22;5620;53.570;9.718;2023-02-11T15:08:06;10.10;1.00
11132;DHT22;5620;53.570;9.718;2023-02-11T15:10:43;10.10;99.90
11132;DHT22;5620;53.570;9.718;2023-02-11T15:13:18;10.10;1.00
11132;DHT22;5620;53.570;9.718;2023-02-11T15:15:44;10.20;1.00
11132;DHT22;5620;53.570;9.718;2023-02-11T15:18:21;10.20;99.90
11132;DHT22;5620;53.570;9.718;2023-02-11T15:20:48;10.10;99.90
11132;DHT22;5620;53.570;9.718;2023-02-11T15:23:24;10.10;99.90
11132;DHT22;5620;53.570;9.718;2023-02-11T15:25:52;10.10;99.90
11132;DHT22;5620;53.570;9.718;2023-02-11T15:28:32;10.10;99.90
11132;DHT22;5620;53.570;9.718;2023-02-11T15:31:10;10.00;99.90
11132;DHT22;5620;53.570;9.718;2023-02-11T15:33:37;10.00;99.90
11132;DHT22;5620;53.570;9.718;2023-02-11T15:36:03;9.90;99.90
11132;DHT22;5620;53.570;9.718;2023-02-11T15:38:31;9.90;99.90
11132;DHT22;5620;53.570;9.718;2023-02-11T15:41:02;9.90;99.90
11132;DHT22;5620;53.570;9.718;2023-02-11T15:43:49;9.90;99.90
11132;DHT22;5620;53.570;9.718;2023-02-11T15:46:19;9.80;1.00
11132;DHT22;5620;53.570;9.718;2023-02-11T15:48:54;9.80;1.00
11132;DHT22;5620;53.570;9.718;2023-02-11T15:51:31;9.80;1.00
11132;DHT22;5620;53.570;9.718;2023-02-11T15:54:00;9.70;1.00
11132;DHT22;5620;53.570;9.718;2023-02-11T15:56:39;9.70;1.00
11132;DHT22;5620;53.570;9.718;2023-02-11T15:59:28;9.70;1.00
11132;DHT22;5620;53.570;9.718;2023-02-11T16:04:57;9.80;1.00
11132;DHT22;5620;53.570;9.718;2023-02-11T16:07:46;9.70;1.00
11132;DHT22;5620;53.570;9.718;2023-02-11T16:10:28;9.70;1.00
11132;DHT22;5620;53.570;9.718;2023-02-11T16:15:56;9.70;1.00
11132;DHT22;5620;53.570;9.718;2023-02-11T16:20:59;9.60;99.90
11132;DHT22;5620;53.570;9.718;2023-02-11T16:23:37;9.60;99.90
11132;DHT22;5620;53.570;9.718;2023-02-11T16:26:10;9.50;99.90
11132;DHT22;5620;53.570;9.718;2023-02-11T16:28:38;9.50;99.90
11132;DHT22;5620;53.570;9.718;2023-02-11T16:31:04;9.50;99.90
11132;DHT22;5620;53.570;9.718;2023-02-11T16:33:33;9.40;99.90
11132;DHT22;5620;53.570;9.718;2023-02-11T16:35:59;9.50;1.00
11132;DHT22;5620;53.570;9.718;2023-02-11T16:38:27;9.50;1.00
11132;DHT22;5620;53.570;9.718;2023-02-11T16:40:55;9.50;1.00
11132;DHT22;5620;53.570;9.718;2023-02-11T16:43:20;9.50;1.00
11132;DHT22;5620;53.570;9.718;2023-02-11T16:45:47;9.50;1.00
11132;DHT22;5620;53.570;9.718;2023-02-11T16:48:16;9.50;1.00
11132;DHT22;5620;53.570;9.718;2023-02-11T16:50:47;9.40;1.00
11132;DHT22;5620;53.570;9.718;2023-02-11T16:53:22;9.40;99.90
11132;DHT22;5620;53.570;9.718;2023-02-11T16:55:51;9.40;1.00
11132;DHT22;5620;53.570;9.718;2023-02-11T16:58:18;9.40;1.00
11132;DHT22;5620;53.570;9.718;2023-02-11T17:00:46;9.30;1.00
11132;DHT22;5620;53.570;9.718;2023-02-11T17:03:27;9.30;1.00
11132;DHT22;5620;53.570;9.718;2023-02-11T17:05:54;9.20;3.60
11132;DHT22;5620;53.570;9.718;2023-02-11T17:08:20;9.20;46.30
11132;DHT22;5620;53.570;9.718;2023-02-11T17:10:47;9.20;99.90
11132;DHT22;5620;53.570;9.718;2023-02-11T17:13:14;9.10;99.90
11132;DHT22;5620;53.570;9.718;2023-02-11T17:15:41;9.10;99.90
11132;DHT22;5620;53.570;9.718;2023-02-11T17:18:10;9.10;1.00
11132;DHT22;5620;53.570;9.718;2023-02-11T17:20:36;9.00;41.90
11132;DHT22;5620;53.570;9.718;2023-02-11T17:23:03;9.00;99.90
11132;DHT22;5620;53.570;9.718;2023-02-11T17:25:31;9.00;1.00
11132;DHT22;5620;53.570;9.718;2023-02-11T17:27:57;8.90;1.00
11132;DHT22;5620;53.570;9.718;2023-02-11T17:30:22;8.90;1.00
11132;DHT22;5620;53.570;9.718;2023-02-11T17:32:49;8.90;1.00
11132;DHT22;5620;53.570;9.718;2023-02-11T17:35:15;8.90;9.20
11132;DHT22;5620;53.570;9.718;2023-02-11T17:37:42;8.90;99.90
11132;DHT22;5620;53.570;9.718;2023-02-11T17:40:10;9.00;99.90
11132;DHT22;5620;53.570;9.718;2023-02-11T17:42:35;9.00;99.90
11132;DHT22;5620;53.570;9.718;2023-02-11T17:45:02;9.00;99.90
11132;DHT22;5620;53.570;9.718;2023-02-11T17:47:29;9.00;99.90
11132;DHT22;5620;53.570;9.718;2023-02-11T17:49:56;9.00;99.90
11132;DHT22;5620;53.570;9.718;2023-02-11T17:52:25;8.90;99.90
11132;DHT22;5620;53.570;9.718;2023-02-11T17:54:54;8.90;99.90
11132;DHT22;5620;53.570;9.718;2023-02-11T17:57:20;9.00;1.00
11132;DHT22;5620;53.570;9.718;2023-02-11T17:59:46;9.00;1.00
11132;DHT22;5620;53.570;9.718;2023-02-11T18:02:12;9.00;1.00
11132;DHT22;5620;53.570;9.718;2023-02-11T18:04:39;9.00;1.00
11132;DHT22;5620;53.570;9.718;2023-02-11T18:07:06;9.00;1.00
11132;DHT22;5620;53.570;9.718;2023-02-11T18:09:39;9.00;1.00
11132;DHT22;5620;53.570;9.718;2023-02-11T18:12:06;8.90;1.00
11132;DHT22;5620;53.570;9.718;2023-02-11T18:14:36;8.90;91.00
11132;DHT22;5620;53.570;9.718;2023-02-11T18:17:01;8.90;99.90
11132;DHT22;5620;53.570;9.718;2023-02-11T18:19:27;8.90;99.90
11132;DHT22;5620;53.570;9.718;2023-02-11T18:21:55;8.90;99.90
11132;DHT22;5620;53.570;9.718;2023-02-11T18:24:21;8.90;99.90
11132;DHT22;5620;53.570;9.718;2023-02-11T18:26:48;8.80;99.90
11132;DHT22;5620;53.570;9.718;2023-02-11T18:29:13;8.80;1.00
11132;DHT22;5620;53.570;9.718;2023-02-11T18:31:41;8.80;1.00
11132;DHT22;5620;53.570;9.718;2023-02-11T18:34:08;8.80;1.00
11132;DHT22;5620;53.570;9.718;2023-02-11T18:36:36;8.90;1.00
11132;DHT22;5620;53.570;9.718;2023-02-11T18:39:03;8.80;1.00
11132;DHT22;5620;53.570;9.718;2023-02-11T18:41:31;8.90;1.00
11132;DHT22;5620;53.570;9.718;2023-02-11T18:43:58;8.90;1.00
11132;DHT22;5620;53.570;9.718;2023-02-11T18:46:24;9.00;1.00
11132;DHT22;5620;53.570;9.718;2023-02-11T18:48:50;9.00;1.00
11132;DHT22;5620;53.570;9.718;2023-02-11T18:51:17;9.10;1.00
11132;DHT22;5620;53.570;9.718;2023-02-11T18:53:44;9.10;1.00
11132;DHT22;5620;53.570;9.718;2023-02-11T18:56:13;9.00;99.90
11132;DHT22;5620;53.570;9.718;2023-02-11T18:58:38;9.10;99.90
11132;DHT22;5620;53.570;9.718;2023-02-11T19:03:37;9.10;1.00
11132;DHT22;5620;53.570;9.718;2023-02-11T19:06:05;9.10;99.90
11132;DHT22;5620;53.570;9.718;2023-02-11T19:08:32;9.10;99.90
11132;DHT22;5620;53.570;9.718;2023-02-11T19:10:57;9.10;99.90
11132;DHT22;5620;53.570;9.718;2023-02-11T19:13:23;9.10;99.90
11132;DHT22;5620;53.570;9.718;2023-02-11T19:15:48;9.00;99.90
11132;DHT22;5620;53.570;9.718;2023-02-11T19:18:15;9.00;99.90
11132;DHT22;5620;53.570;9.718;2023-02-11T19:20:45;9.00;1.00
11132;DHT22;5620;53.570;9.718;2023-02-11T19:23:10;9.00;1.00
11132;DHT22;5620;53.570;9.718;2023-02-11T19:25:46;9.00;1.00